Gray Army Air Field
KGRF : rendu visible

Aérodrome :











RETROUVEZ-NOUS SUR...

 
LOGIN :

S'inscrire | Disclaimer

   EN    FR    IT 

 









Légende :    VFR   VFR Marginal   IFR   IFR Intensif   IFR Très Intensif
Visi : 
Plafond : 
>= 8 km
>= 3000ft
5 à 8 km
1000 à 3000 ft
1500m à 5 km
500 à 1000 ft
800 à 1500m
200 à 500 ft
< 800m
< 200 ft
Symboles :   Orages  Brouillard  Fortes neiges  Fortes précipitations  Vent > 20 kt






- Altitude de l'aérodrome : 300 ft


KGRF - Gray Army Air Field

DERNIER METAR :
  • 231958Z 20012G22KT 6SM +RA BR FEW016 BKN024 OVC033 06/06 A3002 RMK AO2A SLP171 P0006 T00640064 $

METARs EXPIRÉS :
  • 231908Z 19015G21KT 6SM -RA BR BKN020 BKN024 BKN050 07/06 A3000 RMK AO2A CIG 020V026 SLP165 $
  • 231854Z AUTO 18016G23KT 10SM -RA SCT023 BKN037 BKN050 08/07 A3000 RMK AO2 RAE18RAB54 SLP165 $
  • 231819Z AUTO 19013KT 10SM FEW016 FEW022 BKN033 OVC047 07/07 A2998 RMK AO2 RAE18 SLP158 $
  • 231818Z AUTO 19013KT 10SM -RA FEW016 FEW022 SCT030 BKN036 OVC047 07/07 A2998 RMK AO2 SLP158 $
  • 231808Z AUTO 19014G20KT 10SM -RA SCT019 BKN029 BKN038 07/07 A2998 RMK AO2 CIG 026V037 BKN029 V SCT SLP158 $
  • 231738Z AUTO 17012KT 10SM FEW026 BKN035 BKN046 07/07 A2997 RMK AO2 SLP154 $

TAF TAF KGRF
Valide du 23 à 13h jusqu'au 24 à 19h UTC


231303Z 2313/2419 17012G18KT 8000 -RA BR BKN020 650306 520002 540202 QNH2984INS
BECMG 2313/2314 21015G25KT 9999 -SHRA BKN010 640105 QNH2982INS
TEMPO 2314/2316 23025G35KT BKN020 OVC040 560002 580202
TEMPO 2321/2403 23025G35KT 560002
BECMG 2404/2405 23012G18KT 9000 -SHRA BKN015 QNH3015INS
BECMG 2414/2415 20012G18KT 9999 NSW BKN030 QNH3047INS TX08/2321Z TN03/2412Z



MET'MAP, la Météo Aéronautique d'un coup d'oeil ! - Copyright ORBIFLY Décembre 2007 - Disclaimer

ORBIFLY MET'MAP TEAM :

Programmation & Développement : Alexandra Zaïnal
Sur une idée originale de : Baudouin d'Aumeries
Assistance à la programmation : Marc-Olivier Méhu
Soutien technique & logistique : Manuel Goepfert

Contact : metmap@orbifly.com




SOURCES & CREDITS :

   NOAA       Earth
Advisory